METAR AND TAF INFORMATION
METAR FOR UHBB
ADDS - METARS form results

(2346 UTC 08 August 2020)
Data provider http://aviationweather.gov/metar/data/
 
METAR text: UHBB 082330Z 13004MPS 9999 SCT007 SCT026 17/15 Q1001 R36/090060 NOSIG RMK QBB230 QFE733/0978
Conditions at: UHBB (BLAGOVESHCHENSK , RU) observed 2330 UTC 08 August 2020
Temperature: 17.0°C (63°F)
Dewpoint: 15.0°C (59°F) [RH = 88%]
Pressure (altimeter): 29.56 inches Hg (1001.0 mb)
Winds: from the SE (130 degrees) at 9 MPH (8 knots; 4.1 m/s)
Visibility: 6 or more miles (10+ km)
Ceiling: at least 12,000 feet AGL
Clouds: scattered clouds at 700 feet AGL
scattered clouds at 2600 feet AGL
Weather: no significant weather observed at this time

METAR text: UHBB 082300Z 13004MPS 9999 SCT007 SCT026 17/15 Q1001 R36/090060 NOSIG RMK QBB230 QFE733/0978
Conditions at: UHBB (BLAGOVESHCHENSK , RU) observed 2300 UTC 08 August 2020
Temperature: 17.0°C (63°F)
Dewpoint: 15.0°C (59°F) [RH = 88%]
Pressure (altimeter): 29.56 inches Hg (1001.0 mb)
Winds: from the SE (130 degrees) at 9 MPH (8 knots; 4.1 m/s)
Visibility: 6 or more miles (10+ km)
Ceiling: at least 12,000 feet AGL
Clouds: scattered clouds at 700 feet AGL
scattered clouds at 2600 feet AGL
Weather: no significant weather observed at this time

Forecast for: UHBB (BLAGOVESHCHENSK , RU)
Text: TAF UHBB 082245Z 0900/0924 14003G08MPS 5000 BR BKN008 BKN020CB
Forecast period: 0000 to 0300 UTC 09 August 2020
Forecast type: FROM: standard forecast or significant change
Winds: from the SE (140 degrees) at 7 MPH (6 knots; 3.1 m/s)
gusting to 18 MPH (16 knots; 8.2 m/s)
Visibility: 3 miles (5 km)
Ceiling: 800 feet AGL
Clouds: broken clouds at 800 feet AGL
broken clouds at 2000 feet AGL
Weather: BR  (mist)
Text: FM090300 09003G08MPS 3100 -SHRA BKN007 BKN020CB
Forecast period: 0300 UTC 09 August 2020 to 0000 UTC 10 August 2020
Forecast type: FROM: standard forecast or significant change
Winds: from the E (90 degrees) at 7 MPH (6 knots; 3.1 m/s)
gusting to 18 MPH (16 knots; 8.2 m/s)
Visibility: 1.93 miles (3.11 km)
Ceiling: 700 feet AGL
Clouds: broken clouds at 700 feet AGL
broken clouds at 2000 feet AGL
Weather: -SHRA  (light rain showers)
Text: TEMPO 0903/0924 1100 TSRA BKN005 BKN015CB
Forecast period: 0300 UTC 09 August 2020 to 0000 UTC 10 August 2020
Forecast type: TEMPORARY: The following changes expected for less than half the time period
Visibility: 0.68 miles (1.09 km)
Ceiling: 500 feet AGL
Clouds: broken clouds at 500 feet AGL
broken clouds at 1500 feet AGL
Weather: TSRA  (rain associated with thunderstorm(s))

 AIRPORT MAP

 RUNWAY INFORMATION

 AIRPORT FREQUENCIES
Type PMSV Name BLAGOVESCH Frequency 126.4 MHZ
Type TWR Name BLAGOVESCH Frequency 127.2 MHZ

 AIRPORT NEAR NAVIGATION AIDS
Type VOR-DME Name Blagoveschensk Frequency 113600 KHZ
Type NDB Name Blagoveschensk Frequency 350 KHZ
Type NDB Name Blagoveschensk Frequency 350 KHZ



2018 Air Astana Virtual Airline